sensor_id;sensor_type;location;lat;lon;timestamp;P1;durP1;ratioP1;P2;durP2;ratioP2
56830;SDS011;42713;42.676;23.352;2022-08-19T00:01:20;9.15;;;4.82;;
56830;SDS011;42713;42.676;23.352;2022-08-19T00:03:46;12.93;;;5.47;;
56830;SDS011;42713;42.676;23.352;2022-08-19T00:06:13;10.40;;;5.07;;
56830;SDS011;42713;42.676;23.352;2022-08-19T00:08:39;13.43;;;5.20;;
56830;SDS011;42713;42.676;23.352;2022-08-19T00:11:04;13.65;;;5.10;;
56830;SDS011;42713;42.676;23.352;2022-08-19T00:13:31;10.60;;;5.57;;
56830;SDS011;42713;42.676;23.352;2022-08-19T00:15:57;9.85;;;4.80;;
56830;SDS011;42713;42.676;23.352;2022-08-19T00:18:24;9.55;;;4.43;;
56830;SDS011;42713;42.676;23.352;2022-08-19T00:20:49;8.80;;;4.55;;
56830;SDS011;42713;42.676;23.352;2022-08-19T00:23:15;10.20;;;4.70;;
56830;SDS011;42713;42.676;23.352;2022-08-19T00:25:40;9.13;;;4.70;;
56830;SDS011;42713;42.676;23.352;2022-08-19T00:28:06;8.45;;;4.28;;
56830;SDS011;42713;42.676;23.352;2022-08-19T00:30:32;9.73;;;5.05;;
56830;SDS011;42713;42.676;23.352;2022-08-19T00:32:57;9.68;;;4.75;;
56830;SDS011;42713;42.676;23.352;2022-08-19T00:35:23;10.23;;;4.90;;
56830;SDS011;42713;42.676;23.352;2022-08-19T00:37:49;9.90;;;4.50;;
56830;SDS011;42713;42.676;23.352;2022-08-19T00:40:15;10.15;;;4.85;;
56830;SDS011;42713;42.676;23.352;2022-08-19T00:42:43;17.05;;;5.60;;
56830;SDS011;42713;42.676;23.352;2022-08-19T00:45:19;10.35;;;5.63;;
56830;SDS011;42713;42.676;23.352;2022-08-19T00:47:46;10.35;;;5.50;;
56830;SDS011;42713;42.676;23.352;2022-08-19T00:50:13;11.45;;;5.60;;
56830;SDS011;42713;42.676;23.352;2022-08-19T00:52:42;14.45;;;5.57;;
56830;SDS011;42713;42.676;23.352;2022-08-19T00:55:11;15.57;;;6.13;;
56830;SDS011;42713;42.676;23.352;2022-08-19T01:00:10;16.10;;;6.05;;
56830;SDS011;42713;42.676;23.352;2022-08-19T01:02:39;11.55;;;5.85;;
56830;SDS011;42713;42.676;23.352;2022-08-19T01:05:06;12.73;;;5.75;;
56830;SDS011;42713;42.676;23.352;2022-08-19T01:10:03;11.23;;;5.78;;
56830;SDS011;42713;42.676;23.352;2022-08-19T01:12:30;9.68;;;5.60;;
56830;SDS011;42713;42.676;23.352;2022-08-19T01:14:56;9.95;;;5.63;;
56830;SDS011;42713;42.676;23.352;2022-08-19T01:17:22;12.30;;;5.65;;
56830;SDS011;42713;42.676;23.352;2022-08-19T01:19:48;11.00;;;5.18;;
56830;SDS011;42713;42.676;23.352;2022-08-19T01:24:48;11.52;;;5.30;;
56830;SDS011;42713;42.676;23.352;2022-08-19T01:27:14;11.63;;;5.40;;
56830;SDS011;42713;42.676;23.352;2022-08-19T01:29:44;10.35;;;5.65;;
56830;SDS011;42713;42.676;23.352;2022-08-19T01:32:11;13.70;;;5.40;;
56830;SDS011;42713;42.676;23.352;2022-08-19T01:34:39;13.67;;;5.80;;
56830;SDS011;42713;42.676;23.352;2022-08-19T01:37:07;12.23;;;6.00;;
56830;SDS011;42713;42.676;23.352;2022-08-19T01:39:36;14.50;;;5.25;;
56830;SDS011;42713;42.676;23.352;2022-08-19T01:42:03;11.45;;;5.68;;
56830;SDS011;42713;42.676;23.352;2022-08-19T01:44:31;13.25;;;5.45;;
56830;SDS011;42713;42.676;23.352;2022-08-19T01:46:56;9.23;;;5.05;;
56830;SDS011;42713;42.676;23.352;2022-08-19T01:49:23;11.00;;;5.45;;
56830;SDS011;42713;42.676;23.352;2022-08-19T01:51:50;11.88;;;6.00;;
56830;SDS011;42713;42.676;23.352;2022-08-19T01:54:16;12.18;;;5.15;;
56830;SDS011;42713;42.676;23.352;2022-08-19T01:56:43;10.00;;;5.53;;
56830;SDS011;42713;42.676;23.352;2022-08-19T01:59:11;13.10;;;5.15;;
56830;SDS011;42713;42.676;23.352;2022-08-19T02:01:39;12.35;;;5.50;;
56830;SDS011;42713;42.676;23.352;2022-08-19T02:04:05;11.38;;;5.30;;
56830;SDS011;42713;42.676;23.352;2022-08-19T02:06:30;10.15;;;4.72;;
56830;SDS011;42713;42.676;23.352;2022-08-19T02:08:57;9.88;;;5.28;;
56830;SDS011;42713;42.676;23.352;2022-08-19T02:11:29;11.88;;;4.85;;
56830;SDS011;42713;42.676;23.352;2022-08-19T02:13:57;12.00;;;5.53;;
56830;SDS011;42713;42.676;23.352;2022-08-19T02:16:23;9.38;;;5.18;;
56830;SDS011;42713;42.676;23.352;2022-08-19T02:18:49;12.70;;;5.22;;
56830;SDS011;42713;42.676;23.352;2022-08-19T02:21:19;12.05;;;5.60;;
56830;SDS011;42713;42.676;23.352;2022-08-19T02:23:47;9.80;;;5.32;;
56830;SDS011;42713;42.676;23.352;2022-08-19T02:26:13;10.60;;;5.03;;
56830;SDS011;42713;42.676;23.352;2022-08-19T02:28:40;9.55;;;5.07;;
56830;SDS011;42713;42.676;23.352;2022-08-19T02:31:11;12.25;;;5.72;;
56830;SDS011;42713;42.676;23.352;2022-08-19T02:33:39;13.35;;;5.10;;
56830;SDS011;42713;42.676;23.352;2022-08-19T02:36:05;10.85;;;5.55;;
56830;SDS011;42713;42.676;23.352;2022-08-19T02:38:32;8.93;;;4.88;;
56830;SDS011;42713;42.676;23.352;2022-08-19T02:41:02;11.77;;;5.18;;
56830;SDS011;42713;42.676;23.352;2022-08-19T02:43:30;12.25;;;5.13;;
56830;SDS011;42713;42.676;23.352;2022-08-19T02:45:57;13.82;;;5.97;;
56830;SDS011;42713;42.676;23.352;2022-08-19T02:48:23;12.50;;;5.68;;
56830;SDS011;42713;42.676;23.352;2022-08-19T02:50:50;15.77;;;5.10;;
56830;SDS011;42713;42.676;23.352;2022-08-19T02:53:21;13.15;;;7.38;;
56830;SDS011;42713;42.676;23.352;2022-08-19T02:55:50;10.52;;;5.38;;
56830;SDS011;42713;42.676;23.352;2022-08-19T02:58:16;9.93;;;6.03;;
56830;SDS011;42713;42.676;23.352;2022-08-19T03:00:44;12.93;;;5.82;;
56830;SDS011;42713;42.676;23.352;2022-08-19T03:03:12;12.85;;;5.90;;
56830;SDS011;42713;42.676;23.352;2022-08-19T03:05:37;9.05;;;5.55;;
56830;SDS011;42713;42.676;23.352;2022-08-19T03:08:04;18.40;;;5.43;;
56830;SDS011;42713;42.676;23.352;2022-08-19T03:10:30;13.23;;;5.85;;
56830;SDS011;42713;42.676;23.352;2022-08-19T03:12:57;12.85;;;5.18;;
56830;SDS011;42713;42.676;23.352;2022-08-19T03:15:23;10.25;;;5.93;;
56830;SDS011;42713;42.676;23.352;2022-08-19T03:17:48;13.48;;;6.00;;
56830;SDS011;42713;42.676;23.352;2022-08-19T03:20:13;14.88;;;6.13;;
56830;SDS011;42713;42.676;23.352;2022-08-19T03:22:39;10.93;;;6.25;;
56830;SDS011;42713;42.676;23.352;2022-08-19T03:25:05;11.23;;;5.63;;
56830;SDS011;42713;42.676;23.352;2022-08-19T03:27:30;13.93;;;6.50;;
56830;SDS011;42713;42.676;23.352;2022-08-19T03:29:56;11.57;;;5.95;;
56830;SDS011;42713;42.676;23.352;2022-08-19T03:32:22;13.52;;;6.10;;
56830;SDS011;42713;42.676;23.352;2022-08-19T03:34:47;13.20;;;5.35;;
56830;SDS011;42713;42.676;23.352;2022-08-19T03:37:14;10.27;;;5.55;;
56830;SDS011;42713;42.676;23.352;2022-08-19T03:39:40;13.27;;;6.28;;
56830;SDS011;42713;42.676;23.352;2022-08-19T03:42:07;13.93;;;5.75;;
56830;SDS011;42713;42.676;23.352;2022-08-19T03:44:32;11.45;;;6.60;;
56830;SDS011;42713;42.676;23.352;2022-08-19T03:46:58;12.55;;;6.72;;
56830;SDS011;42713;42.676;23.352;2022-08-19T03:49:26;14.05;;;8.80;;
56830;SDS011;42713;42.676;23.352;2022-08-19T03:51:54;15.85;;;9.95;;
56830;SDS011;42713;42.676;23.352;2022-08-19T03:54:22;13.63;;;6.63;;
56830;SDS011;42713;42.676;23.352;2022-08-19T03:56:50;13.10;;;6.82;;
56830;SDS011;42713;42.676;23.352;2022-08-19T03:59:20;13.07;;;6.78;;
56830;SDS011;42713;42.676;23.352;2022-08-19T04:01:51;14.50;;;7.53;;
56830;SDS011;42713;42.676;23.352;2022-08-19T04:04:22;12.95;;;7.88;;
56830;SDS011;42713;42.676;23.352;2022-08-19T04:06:48;10.80;;;6.95;;
56830;SDS011;42713;42.676;23.352;2022-08-19T04:09:15;12.13;;;6.95;;
56830;SDS011;42713;42.676;23.352;2022-08-19T04:11:45;12.32;;;6.70;;
56830;SDS011;42713;42.676;23.352;2022-08-19T04:14:16;16.63;;;7.38;;
56830;SDS011;42713;42.676;23.352;2022-08-19T04:16:44;14.40;;;7.40;;
56830;SDS011;42713;42.676;23.352;2022-08-19T04:19:11;16.50;;;7.20;;
56830;SDS011;42713;42.676;23.352;2022-08-19T04:21:37;25.17;;;8.90;;
56830;SDS011;42713;42.676;23.352;2022-08-19T04:24:03;17.60;;;7.28;;
56830;SDS011;42713;42.676;23.352;2022-08-19T04:26:30;23.45;;;7.35;;
56830;SDS011;42713;42.676;23.352;2022-08-19T04:28:58;22.52;;;8.27;;
56830;SDS011;42713;42.676;23.352;2022-08-19T04:31:27;15.93;;;8.00;;
56830;SDS011;42713;42.676;23.352;2022-08-19T04:33:58;20.92;;;7.93;;
56830;SDS011;42713;42.676;23.352;2022-08-19T04:36:26;41.72;;;10.13;;
56830;SDS011;42713;42.676;23.352;2022-08-19T04:38:57;29.13;;;8.82;;
56830;SDS011;42713;42.676;23.352;2022-08-19T04:41:25;25.15;;;8.57;;
56830;SDS011;42713;42.676;23.352;2022-08-19T04:44:09;17.17;;;7.30;;
56830;SDS011;42713;42.676;23.352;2022-08-19T04:46:36;19.52;;;7.47;;
56830;SDS011;42713;42.676;23.352;2022-08-19T04:49:03;16.77;;;7.30;;
56830;SDS011;42713;42.676;23.352;2022-08-19T04:51:30;17.08;;;7.63;;
56830;SDS011;42713;42.676;23.352;2022-08-19T04:53:56;17.70;;;7.75;;
56830;SDS011;42713;42.676;23.352;2022-08-19T04:56:22;15.35;;;7.68;;
56830;SDS011;42713;42.676;23.352;2022-08-19T04:58:51;15.15;;;7.57;;
56830;SDS011;42713;42.676;23.352;2022-08-19T05:01:17;15.93;;;8.30;;
56830;SDS011;42713;42.676;23.352;2022-08-19T05:03:47;16.63;;;7.45;;
56830;SDS011;42713;42.676;23.352;2022-08-19T05:06:13;13.95;;;7.90;;
56830;SDS011;42713;42.676;23.352;2022-08-19T05:08:41;13.27;;;7.57;;
56830;SDS011;42713;42.676;23.352;2022-08-19T05:11:30;15.07;;;8.07;;
56830;SDS011;42713;42.676;23.352;2022-08-19T05:13:56;14.52;;;7.35;;
56830;SDS011;42713;42.676;23.352;2022-08-19T05:16:22;17.65;;;7.65;;
56830;SDS011;42713;42.676;23.352;2022-08-19T05:18:49;13.88;;;6.43;;
56830;SDS011;42713;42.676;23.352;2022-08-19T05:21:33;10.20;;;5.80;;
56830;SDS011;42713;42.676;23.352;2022-08-19T05:24:18;12.40;;;6.03;;
56830;SDS011;42713;42.676;23.352;2022-08-19T05:26:46;11.88;;;6.25;;
56830;SDS011;42713;42.676;23.352;2022-08-19T05:29:14;13.40;;;6.20;;
56830;SDS011;42713;42.676;23.352;2022-08-19T05:31:41;15.43;;;6.50;;
56830;SDS011;42713;42.676;23.352;2022-08-19T05:34:08;13.55;;;6.43;;
56830;SDS011;42713;42.676;23.352;2022-08-19T05:36:36;13.85;;;6.45;;
56830;SDS011;42713;42.676;23.352;2022-08-19T05:39:05;13.27;;;6.72;;
56830;SDS011;42713;42.676;23.352;2022-08-19T05:41:31;10.85;;;6.22;;
56830;SDS011;42713;42.676;23.352;2022-08-19T05:43:57;14.25;;;6.65;;
56830;SDS011;42713;42.676;23.352;2022-08-19T05:46:25;12.20;;;6.55;;
56830;SDS011;42713;42.676;23.352;2022-08-19T05:48:51;12.75;;;6.28;;
56830;SDS011;42713;42.676;23.352;2022-08-19T05:51:16;15.68;;;6.85;;
56830;SDS011;42713;42.676;23.352;2022-08-19T05:53:42;13.02;;;6.78;;
56830;SDS011;42713;42.676;23.352;2022-08-19T05:56:12;12.57;;;6.97;;
56830;SDS011;42713;42.676;23.352;2022-08-19T05:58:41;20.45;;;7.40;;
56830;SDS011;42713;42.676;23.352;2022-08-19T06:01:12;13.77;;;7.00;;
56830;SDS011;42713;42.676;23.352;2022-08-19T06:03:42;15.07;;;7.07;;
56830;SDS011;42713;42.676;23.352;2022-08-19T06:06:09;13.15;;;7.53;;
56830;SDS011;42713;42.676;23.352;2022-08-19T06:08:36;16.45;;;6.75;;
56830;SDS011;42713;42.676;23.352;2022-08-19T06:13:48;27.27;;;8.73;;
56830;SDS011;42713;42.676;23.352;2022-08-19T06:18:48;34.35;;;9.10;;
56830;SDS011;42713;42.676;23.352;2022-08-19T06:21:16;17.13;;;8.85;;
56830;SDS011;42713;42.676;23.352;2022-08-19T06:23:45;18.58;;;8.75;;
56830;SDS011;42713;42.676;23.352;2022-08-19T06:26:12;16.30;;;8.27;;
56830;SDS011;42713;42.676;23.352;2022-08-19T06:28:39;16.48;;;7.85;;
56830;SDS011;42713;42.676;23.352;2022-08-19T06:31:15;21.85;;;10.50;;
56830;SDS011;42713;42.676;23.352;2022-08-19T06:33:43;16.92;;;8.48;;
56830;SDS011;42713;42.676;23.352;2022-08-19T06:38:52;18.85;;;7.47;;
56830;SDS011;42713;42.676;23.352;2022-08-19T06:41:19;18.05;;;7.65;;
56830;SDS011;42713;42.676;23.352;2022-08-19T06:43:44;12.90;;;7.28;;
56830;SDS011;42713;42.676;23.352;2022-08-19T06:46:14;15.85;;;7.25;;
56830;SDS011;42713;42.676;23.352;2022-08-19T06:48:41;14.02;;;6.80;;
56830;SDS011;42713;42.676;23.352;2022-08-19T06:51:07;17.50;;;7.32;;
56830;SDS011;42713;42.676;23.352;2022-08-19T06:53:33;22.38;;;9.10;;
56830;SDS011;42713;42.676;23.352;2022-08-19T06:55:59;46.40;;;9.82;;
56830;SDS011;42713;42.676;23.352;2022-08-19T06:58:32;18.00;;;6.97;;
56830;SDS011;42713;42.676;23.352;2022-08-19T07:01:04;19.00;;;7.05;;
56830;SDS011;42713;42.676;23.352;2022-08-19T07:03:30;16.98;;;6.50;;
56830;SDS011;42713;42.676;23.352;2022-08-19T07:06:02;13.27;;;6.93;;
56830;SDS011;42713;42.676;23.352;2022-08-19T07:08:29;13.25;;;6.38;;
56830;SDS011;42713;42.676;23.352;2022-08-19T07:10:55;12.68;;;6.82;;
56830;SDS011;42713;42.676;23.352;2022-08-19T07:13:20;18.02;;;7.18;;
56830;SDS011;42713;42.676;23.352;2022-08-19T07:15:47;23.90;;;7.07;;
56830;SDS011;42713;42.676;23.352;2022-08-19T07:18:14;14.38;;;6.68;;
56830;SDS011;42713;42.676;23.352;2022-08-19T07:20:40;58.97;;;9.65;;
56830;SDS011;42713;42.676;23.352;2022-08-19T07:23:06;27.08;;;6.95;;
56830;SDS011;42713;42.676;23.352;2022-08-19T07:25:32;15.85;;;6.25;;
56830;SDS011;42713;42.676;23.352;2022-08-19T07:27:57;15.93;;;6.82;;
56830;SDS011;42713;42.676;23.352;2022-08-19T07:30:22;22.27;;;6.40;;
56830;SDS011;42713;42.676;23.352;2022-08-19T07:32:49;16.33;;;6.80;;
56830;SDS011;42713;42.676;23.352;2022-08-19T07:35:16;18.92;;;6.75;;
56830;SDS011;42713;42.676;23.352;2022-08-19T07:37:44;15.40;;;6.43;;
56830;SDS011;42713;42.676;23.352;2022-08-19T07:40:15;14.68;;;6.43;;
56830;SDS011;42713;42.676;23.352;2022-08-19T07:42:40;13.20;;;5.80;;
56830;SDS011;42713;42.676;23.352;2022-08-19T07:45:07;14.85;;;5.90;;
56830;SDS011;42713;42.676;23.352;2022-08-19T07:47:35;19.67;;;6.65;;
56830;SDS011;42713;42.676;23.352;2022-08-19T07:50:01;16.23;;;6.78;;
56830;SDS011;42713;42.676;23.352;2022-08-19T07:52:29;15.68;;;6.10;;
56830;SDS011;42713;42.676;23.352;2022-08-19T07:54:55;13.60;;;6.28;;
56830;SDS011;42713;42.676;23.352;2022-08-19T07:57:20;17.00;;;6.55;;
56830;SDS011;42713;42.676;23.352;2022-08-19T07:59:45;14.43;;;5.70;;
56830;SDS011;42713;42.676;23.352;2022-08-19T08:02:11;15.75;;;6.05;;
56830;SDS011;42713;42.676;23.352;2022-08-19T08:04:36;13.32;;;5.45;;
56830;SDS011;42713;42.676;23.352;2022-08-19T08:07:20;12.23;;;5.55;;
56830;SDS011;42713;42.676;23.352;2022-08-19T08:10:06;18.67;;;5.70;;
56830;SDS011;42713;42.676;23.352;2022-08-19T08:12:34;15.40;;;5.40;;
56830;SDS011;42713;42.676;23.352;2022-08-19T08:15:08;10.70;;;5.50;;
56830;SDS011;42713;42.676;23.352;2022-08-19T08:17:36;17.83;;;5.82;;
56830;SDS011;42713;42.676;23.352;2022-08-19T08:20:06;13.95;;;5.80;;
56830;SDS011;42713;42.676;23.352;2022-08-19T08:22:32;13.15;;;5.95;;
56830;SDS011;42713;42.676;23.352;2022-08-19T08:25:17;13.82;;;5.93;;
56830;SDS011;42713;42.676;23.352;2022-08-19T08:27:46;16.20;;;5.68;;
56830;SDS011;42713;42.676;23.352;2022-08-19T08:30:13;15.55;;;5.80;;
56830;SDS011;42713;42.676;23.352;2022-08-19T08:32:41;13.32;;;5.28;;
56830;SDS011;42713;42.676;23.352;2022-08-19T08:35:08;14.00;;;5.60;;
56830;SDS011;42713;42.676;23.352;2022-08-19T08:37:36;11.55;;;5.35;;
56830;SDS011;42713;42.676;23.352;2022-08-19T08:42:59;13.27;;;4.93;;
56830;SDS011;42713;42.676;23.352;2022-08-19T08:45:32;11.85;;;5.25;;
56830;SDS011;42713;42.676;23.352;2022-08-19T08:48:02;14.27;;;5.25;;
56830;SDS011;42713;42.676;23.352;2022-08-19T08:50:43;10.98;;;4.50;;
56830;SDS011;42713;42.676;23.352;2022-08-19T08:53:10;11.93;;;4.80;;
56830;SDS011;42713;42.676;23.352;2022-08-19T08:55:41;10.02;;;4.63;;
56830;SDS011;42713;42.676;23.352;2022-08-19T08:58:09;10.27;;;4.32;;
56830;SDS011;42713;42.676;23.352;2022-08-19T09:00:56;11.50;;;4.45;;
56830;SDS011;42713;42.676;23.352;2022-08-19T09:03:23;12.20;;;4.47;;
56830;SDS011;42713;42.676;23.352;2022-08-19T09:06:04;8.82;;;4.30;;
56830;SDS011;42713;42.676;23.352;2022-08-19T09:08:45;12.05;;;4.22;;
56830;SDS011;42713;42.676;23.352;2022-08-19T09:11:32;7.85;;;3.78;;
56830;SDS011;42713;42.676;23.352;2022-08-19T09:16:29;11.68;;;4.10;;
56830;SDS011;42713;42.676;23.352;2022-08-19T09:18:56;12.00;;;4.00;;
56830;SDS011;42713;42.676;23.352;2022-08-19T09:21:26;9.15;;;3.78;;
56830;SDS011;42713;42.676;23.352;2022-08-19T09:23:52;12.35;;;4.18;;
56830;SDS011;42713;42.676;23.352;2022-08-19T09:26:19;13.63;;;4.38;;
56830;SDS011;42713;42.676;23.352;2022-08-19T09:28:46;10.93;;;4.57;;
56830;SDS011;42713;42.676;23.352;2022-08-19T09:31:14;11.43;;;4.55;;
56830;SDS011;42713;42.676;23.352;2022-08-19T09:33:42;8.40;;;4.13;;
56830;SDS011;42713;42.676;23.352;2022-08-19T09:36:12;12.02;;;4.18;;
56830;SDS011;42713;42.676;23.352;2022-08-19T09:38:40;12.25;;;3.60;;
56830;SDS011;42713;42.676;23.352;2022-08-19T09:41:07;6.85;;;3.58;;
56830;SDS011;42713;42.676;23.352;2022-08-19T09:43:34;10.35;;;3.47;;
56830;SDS011;42713;42.676;23.352;2022-08-19T09:46:02;9.45;;;4.05;;
56830;SDS011;42713;42.676;23.352;2022-08-19T09:48:34;9.23;;;3.78;;
56830;SDS011;42713;42.676;23.352;2022-08-19T09:51:08;8.55;;;3.75;;
56830;SDS011;42713;42.676;23.352;2022-08-19T09:53:36;6.63;;;3.33;;
56830;SDS011;42713;42.676;23.352;2022-08-19T09:56:05;6.93;;;3.10;;
56830;SDS011;42713;42.676;23.352;2022-08-19T09:58:32;11.07;;;3.58;;
56830;SDS011;42713;42.676;23.352;2022-08-19T10:00:59;7.20;;;3.15;;
56830;SDS011;42713;42.676;23.352;2022-08-19T10:03:30;9.90;;;3.22;;
56830;SDS011;42713;42.676;23.352;2022-08-19T10:05:57;7.82;;;3.40;;
56830;SDS011;42713;42.676;23.352;2022-08-19T10:08:27;6.88;;;3.13;;
56830;SDS011;42713;42.676;23.352;2022-08-19T10:10:55;11.07;;;3.65;;
56830;SDS011;42713;42.676;23.352;2022-08-19T10:13:23;9.82;;;3.60;;
56830;SDS011;42713;42.676;23.352;2022-08-19T10:15:51;9.80;;;3.33;;
56830;SDS011;42713;42.676;23.352;2022-08-19T10:18:20;10.20;;;3.33;;
56830;SDS011;42713;42.676;23.352;2022-08-19T10:20:47;7.10;;;3.15;;
56830;SDS011;42713;42.676;23.352;2022-08-19T10:23:13;8.88;;;3.20;;
56830;SDS011;42713;42.676;23.352;2022-08-19T10:25:43;7.50;;;3.42;;
56830;SDS011;42713;42.676;23.352;2022-08-19T10:28:09;7.82;;;3.20;;
56830;SDS011;42713;42.676;23.352;2022-08-19T10:30:37;8.07;;;3.70;;
56830;SDS011;42713;42.676;23.352;2022-08-19T10:33:04;8.65;;;3.35;;
56830;SDS011;42713;42.676;23.352;2022-08-19T10:35:31;7.57;;;3.60;;
56830;SDS011;42713;42.676;23.352;2022-08-19T10:37:59;8.90;;;3.33;;
56830;SDS011;42713;42.676;23.352;2022-08-19T10:40:26;11.90;;;3.53;;
56830;SDS011;42713;42.676;23.352;2022-08-19T10:42:53;10.55;;;3.70;;
56830;SDS011;42713;42.676;23.352;2022-08-19T10:45:20;9.88;;;3.60;;
56830;SDS011;42713;42.676;23.352;2022-08-19T10:47:51;9.48;;;3.80;;
56830;SDS011;42713;42.676;23.352;2022-08-19T10:50:17;8.98;;;4.38;;
56830;SDS011;42713;42.676;23.352;2022-08-19T10:53:06;11.05;;;3.53;;
56830;SDS011;42713;42.676;23.352;2022-08-19T10:55:36;7.97;;;3.53;;
56830;SDS011;42713;42.676;23.352;2022-08-19T10:58:20;10.25;;;3.70;;
56830;SDS011;42713;42.676;23.352;2022-08-19T11:00:56;9.40;;;3.67;;
56830;SDS011;42713;42.676;23.352;2022-08-19T11:03:23;8.85;;;3.70;;
56830;SDS011;42713;42.676;23.352;2022-08-19T11:05:57;10.68;;;3.83;;
56830;SDS011;42713;42.676;23.352;2022-08-19T11:08:30;7.88;;;3.38;;
56830;SDS011;42713;42.676;23.352;2022-08-19T11:10:59;10.40;;;3.80;;
56830;SDS011;42713;42.676;23.352;2022-08-19T11:13:29;9.43;;;4.15;;
56830;SDS011;42713;42.676;23.352;2022-08-19T11:16:06;8.38;;;3.30;;
56830;SDS011;42713;42.676;23.352;2022-08-19T11:18:48;8.85;;;3.75;;
56830;SDS011;42713;42.676;23.352;2022-08-19T11:23:44;10.80;;;3.58;;
56830;SDS011;42713;42.676;23.352;2022-08-19T11:26:14;11.55;;;3.63;;
56830;SDS011;42713;42.676;23.352;2022-08-19T11:28:41;8.45;;;3.90;;
56830;SDS011;42713;42.676;23.352;2022-08-19T11:31:14;7.40;;;3.78;;
56830;SDS011;42713;42.676;23.352;2022-08-19T11:33:42;10.57;;;3.47;;
56830;SDS011;42713;42.676;23.352;2022-08-19T11:36:08;8.27;;;3.92;;
56830;SDS011;42713;42.676;23.352;2022-08-19T11:38:34;10.70;;;3.63;;
56830;SDS011;42713;42.676;23.352;2022-08-19T11:41:02;9.95;;;4.00;;
56830;SDS011;42713;42.676;23.352;2022-08-19T11:43:30;8.73;;;3.87;;
56830;SDS011;42713;42.676;23.352;2022-08-19T11:45:56;9.82;;;3.67;;
56830;SDS011;42713;42.676;23.352;2022-08-19T11:48:22;10.93;;;3.92;;
56830;SDS011;42713;42.676;23.352;2022-08-19T11:50:52;11.20;;;3.85;;
56830;SDS011;42713;42.676;23.352;2022-08-19T11:53:21;9.55;;;3.88;;
56830;SDS011;42713;42.676;23.352;2022-08-19T11:55:47;10.13;;;4.20;;
56830;SDS011;42713;42.676;23.352;2022-08-19T11:58:13;6.55;;;3.35;;
56830;SDS011;42713;42.676;23.352;2022-08-19T12:00:40;8.77;;;3.40;;
56830;SDS011;42713;42.676;23.352;2022-08-19T12:03:07;9.48;;;3.70;;
56830;SDS011;42713;42.676;23.352;2022-08-19T12:05:33;8.40;;;3.90;;
56830;SDS011;42713;42.676;23.352;2022-08-19T12:08:01;8.73;;;4.00;;
56830;SDS011;42713;42.676;23.352;2022-08-19T12:10:26;9.98;;;3.97;;
56830;SDS011;42713;42.676;23.352;2022-08-19T12:12:52;10.32;;;3.60;;
56830;SDS011;42713;42.676;23.352;2022-08-19T12:15:17;8.23;;;3.63;;
56830;SDS011;42713;42.676;23.352;2022-08-19T12:17:43;10.10;;;3.85;;
56830;SDS011;42713;42.676;23.352;2022-08-19T12:20:09;7.65;;;3.60;;
56830;SDS011;42713;42.676;23.352;2022-08-19T12:22:38;9.00;;;3.83;;
56830;SDS011;42713;42.676;23.352;2022-08-19T12:25:07;9.50;;;4.30;;
56830;SDS011;42713;42.676;23.352;2022-08-19T12:27:34;10.07;;;3.83;;
56830;SDS011;42713;42.676;23.352;2022-08-19T12:30:00;8.60;;;3.45;;
56830;SDS011;42713;42.676;23.352;2022-08-19T12:32:27;9.60;;;3.72;;
56830;SDS011;42713;42.676;23.352;2022-08-19T12:34:53;10.93;;;3.42;;
56830;SDS011;42713;42.676;23.352;2022-08-19T12:37:19;7.95;;;3.42;;
56830;SDS011;42713;42.676;23.352;2022-08-19T12:39:45;9.05;;;4.03;;
56830;SDS011;42713;42.676;23.352;2022-08-19T12:42:11;10.05;;;4.03;;
56830;SDS011;42713;42.676;23.352;2022-08-19T12:44:39;8.40;;;3.53;;
56830;SDS011;42713;42.676;23.352;2022-08-19T12:47:06;8.55;;;3.60;;
56830;SDS011;42713;42.676;23.352;2022-08-19T12:49:34;10.95;;;3.80;;
56830;SDS011;42713;42.676;23.352;2022-08-19T12:52:02;8.23;;;3.42;;
56830;SDS011;42713;42.676;23.352;2022-08-19T12:54:30;10.07;;;3.95;;
56830;SDS011;42713;42.676;23.352;2022-08-19T12:56:56;10.02;;;4.00;;
56830;SDS011;42713;42.676;23.352;2022-08-19T12:59:36;8.68;;;3.90;;
56830;SDS011;42713;42.676;23.352;2022-08-19T13:02:06;7.88;;;3.83;;
56830;SDS011;42713;42.676;23.352;2022-08-19T13:04:33;11.95;;;3.55;;
56830;SDS011;42713;42.676;23.352;2022-08-19T13:07:01;10.10;;;3.60;;
56830;SDS011;42713;42.676;23.352;2022-08-19T13:09:28;8.07;;;3.60;;
56830;SDS011;42713;42.676;23.352;2022-08-19T13:11:53;9.95;;;3.40;;
56830;SDS011;42713;42.676;23.352;2022-08-19T13:14:19;13.13;;;3.92;;
56830;SDS011;42713;42.676;23.352;2022-08-19T13:16:45;8.70;;;3.45;;
56830;SDS011;42713;42.676;23.352;2022-08-19T13:19:11;9.30;;;3.70;;
56830;SDS011;42713;42.676;23.352;2022-08-19T13:21:38;13.18;;;5.35;;
56830;SDS011;42713;42.676;23.352;2022-08-19T13:24:03;12.25;;;4.07;;
56830;SDS011;42713;42.676;23.352;2022-08-19T13:26:31;10.90;;;3.47;;
56830;SDS011;42713;42.676;23.352;2022-08-19T13:28:57;9.40;;;3.70;;
56830;SDS011;42713;42.676;23.352;2022-08-19T13:31:41;8.32;;;3.75;;
56830;SDS011;42713;42.676;23.352;2022-08-19T13:34:27;9.68;;;3.83;;
56830;SDS011;42713;42.676;23.352;2022-08-19T13:36:58;9.88;;;3.58;;
56830;SDS011;42713;42.676;23.352;2022-08-19T13:39:28;10.43;;;3.58;;
56830;SDS011;42713;42.676;23.352;2022-08-19T13:41:54;11.52;;;3.95;;
56830;SDS011;42713;42.676;23.352;2022-08-19T13:44:19;9.25;;;3.60;;
56830;SDS011;42713;42.676;23.352;2022-08-19T13:46:46;7.95;;;3.47;;
56830;SDS011;42713;42.676;23.352;2022-08-19T13:49:14;13.00;;;3.70;;
56830;SDS011;42713;42.676;23.352;2022-08-19T13:51:40;8.70;;;3.60;;
56830;SDS011;42713;42.676;23.352;2022-08-19T13:54:08;13.30;;;3.67;;
56830;SDS011;42713;42.676;23.352;2022-08-19T13:56:34;8.02;;;3.25;;
56830;SDS011;42713;42.676;23.352;2022-08-19T13:59:04;6.75;;;3.40;;
56830;SDS011;42713;42.676;23.352;2022-08-19T14:01:29;8.43;;;3.60;;
56830;SDS011;42713;42.676;23.352;2022-08-19T14:03:55;9.73;;;3.95;;
56830;SDS011;42713;42.676;23.352;2022-08-19T14:06:21;12.43;;;3.70;;
56830;SDS011;42713;42.676;23.352;2022-08-19T14:08:47;8.63;;;3.45;;
56830;SDS011;42713;42.676;23.352;2022-08-19T14:11:13;13.73;;;3.35;;
56830;SDS011;42713;42.676;23.352;2022-08-19T14:13:38;9.13;;;3.35;;
56830;SDS011;42713;42.676;23.352;2022-08-19T14:16:08;8.90;;;3.35;;
56830;SDS011;42713;42.676;23.352;2022-08-19T14:18:35;9.30;;;3.42;;
56830;SDS011;42713;42.676;23.352;2022-08-19T14:21:01;9.52;;;3.83;;
56830;SDS011;42713;42.676;23.352;2022-08-19T14:23:28;8.73;;;3.50;;
56830;SDS011;42713;42.676;23.352;2022-08-19T14:26:02;10.65;;;3.65;;
56830;SDS011;42713;42.676;23.352;2022-08-19T14:28:28;8.85;;;3.40;;
56830;SDS011;42713;42.676;23.352;2022-08-19T14:30:55;9.80;;;3.53;;
56830;SDS011;42713;42.676;23.352;2022-08-19T14:33:20;9.63;;;3.58;;
56830;SDS011;42713;42.676;23.352;2022-08-19T14:35:46;6.25;;;3.15;;
56830;SDS011;42713;42.676;23.352;2022-08-19T14:38:14;8.80;;;3.75;;
56830;SDS011;42713;42.676;23.352;2022-08-19T14:40:42;8.88;;;3.30;;
56830;SDS011;42713;42.676;23.352;2022-08-19T14:43:08;9.55;;;3.72;;
56830;SDS011;42713;42.676;23.352;2022-08-19T14:45:35;7.97;;;3.40;;
56830;SDS011;42713;42.676;23.352;2022-08-19T14:48:02;11.43;;;3.35;;
56830;SDS011;42713;42.676;23.352;2022-08-19T14:50:32;9.00;;;3.22;;
56830;SDS011;42713;42.676;23.352;2022-08-19T14:53:04;10.00;;;3.67;;
56830;SDS011;42713;42.676;23.352;2022-08-19T14:55:32;8.88;;;3.20;;